Time;durP1;ratioP1;P1;durP2;ratioP2;P2;SDS_P1;SDS_P2;PMS_P1;PMS_P2;Temp;Humidity;BMP_temperature;BMP_pressure;BME280_temperature;BME280_humidity;BME280_pressure;Samples;Min_cycle;Max_cycle;Signal;HPM_P1;HPM_P2
2022/11/30 00:01:20;;;;;;;27.10;14.70;;;8.60;99.90;;;;;;5039558;28;20382;-56
2022/11/30 00:03:47;;;;;;;24.60;13.53;;;8.70;99.90;;;;;;5039836;28;20204;-56
2022/11/30 00:06:21;;;;;;;24.70;13.60;;;8.50;99.90;;;;;;5038401;28;20208;-55
2022/11/30 00:08:51;;;;;;;23.77;14.43;;;8.50;99.90;;;;;;5039921;28;20211;-55
2022/11/30 00:11:19;;;;;;;27.43;14.17;;;8.60;99.90;;;;;;5038625;28;20235;-55
2022/11/30 00:13:47;;;;;;;23.07;13.97;;;8.50;99.90;;;;;;5039188;28;20206;-57
2022/11/30 00:16:14;;;;;;;24.80;13.73;;;8.60;99.90;;;;;;5040551;28;20211;-55
2022/11/30 00:18:41;;;;;;;26.07;14.23;;;8.50;99.90;;;;;;5036939;28;20197;-55
2022/11/30 00:21:11;;;;;;;23.37;13.87;;;8.60;99.90;;;;;;5038712;28;20209;-54
2022/11/30 00:23:40;;;;;;;23.03;14.00;;;8.50;99.90;;;;;;5039331;28;20291;-54
2022/11/30 00:26:10;;;;;;;22.87;13.70;;;8.50;99.90;;;;;;5040162;28;20274;-55
2022/11/30 00:28:38;;;;;;;17.97;11.67;;;8.60;99.90;;;;;;5040335;28;20271;-55
2022/11/30 00:31:10;;;;;;;19.93;12.47;;;8.50;99.90;;;;;;5040788;28;20228;-55
2022/11/30 00:33:38;;;;;;;22.37;11.77;;;8.40;99.90;;;;;;5027488;28;20569;-55
2022/11/30 00:36:07;;;;;;;19.90;12.10;;;8.40;99.90;;;;;;5038445;28;20198;-56
2022/11/30 00:38:34;;;;;;;19.67;12.13;;;8.40;99.90;;;;;;5040463;28;20772;-56
2022/11/30 00:41:01;;;;;;;21.33;12.37;;;8.40;99.90;;;;;;5038205;28;20227;-58
2022/11/30 00:43:29;;;;;;;19.63;11.30;;;8.40;99.90;;;;;;5053887;28;20602;-56
2022/11/30 00:45:56;;;;;;;17.60;11.13;;;8.50;99.90;;;;;;5038690;28;20710;-56
2022/11/30 00:48:23;;;;;;;17.33;11.70;;;8.50;99.90;;;;;;5037931;28;20246;-56
2022/11/30 00:50:50;;;;;;;19.23;11.10;;;8.60;99.90;;;;;;5039508;28;20213;-56
2022/11/30 00:53:18;;;;;;;16.13;12.20;;;8.60;99.90;;;;;;5039080;28;20205;-56
2022/11/30 00:55:45;;;;;;;18.40;11.80;;;8.60;99.90;;;;;;5038485;28;20202;-56
2022/11/30 00:58:13;;;;;;;17.13;12.20;;;8.50;99.90;;;;;;5038587;28;20200;-56
2022/11/30 01:00:40;;;;;;;16.57;11.00;;;8.60;99.90;;;;;;5040021;28;20200;-55
2022/11/30 01:03:07;;;;;;;19.93;11.50;;;8.60;99.90;;;;;;5037554;28;20210;-55
2022/11/30 01:05:34;;;;;;;17.73;10.83;;;8.60;99.90;;;;;;5029167;28;20249;-56
2022/11/30 01:08:04;;;;;;;17.10;11.07;;;8.50;99.90;;;;;;5035195;28;20234;-55
2022/11/30 01:10:33;;;;;;;14.87;10.00;;;8.60;99.90;;;;;;5037437;28;20223;-55
2022/11/30 01:13:00;;;;;;;19.93;10.53;;;8.60;99.90;;;;;;5036911;28;20200;-56
2022/11/30 01:15:27;;;;;;;18.43;10.20;;;8.60;99.90;;;;;;5039672;28;20246;-55
2022/11/30 01:17:54;;;;;;;15.20;10.07;;;8.60;99.90;;;;;;5037813;28;20207;-56
2022/11/30 01:20:20;;;;;;;16.97;10.93;;;8.60;99.90;;;;;;5036143;28;20245;-56
2022/11/30 01:22:47;;;;;;;14.07;9.97;;;8.60;99.90;;;;;;5035719;28;20632;-55
2022/11/30 01:25:14;;;;;;;15.70;10.83;;;8.70;99.90;;;;;;5036475;28;20209;-56
2022/11/30 01:27:41;;;;;;;15.03;10.13;;;8.70;99.90;;;;;;5040550;28;20281;-55
2022/11/30 01:30:08;;;;;;;16.17;10.17;;;8.70;99.90;;;;;;5035171;28;20214;-56
2022/11/30 01:32:35;;;;;;;17.30;10.80;;;8.70;99.90;;;;;;5036905;28;20208;-54
2022/11/30 01:35:02;;;;;;;14.80;10.13;;;8.70;99.90;;;;;;5034573;28;20194;-56
2022/11/30 01:37:29;;;;;;;17.60;9.43;;;8.60;99.90;;;;;;5038339;28;20232;-55
2022/11/30 01:39:56;;;;;;;15.10;9.97;;;8.50;99.90;;;;;;5039477;28;20203;-55
2022/11/30 01:42:23;;;;;;;14.13;9.37;;;8.50;99.90;;;;;;5039053;28;20209;-54
2022/11/30 01:44:55;;;;;;;14.80;9.93;;;8.50;99.90;;;;;;5037509;28;20202;-56
2022/11/30 01:47:39;;;;;;;14.37;10.00;;;8.50;99.90;;;;;;5038485;28;20297;-55
2022/11/30 01:50:32;;;;;;;12.57;8.93;;;8.60;99.90;;;;;;5037790;28;20314;-56
2022/11/30 01:53:02;;;;;;;13.43;9.50;;;8.50;99.90;;;;;;5039549;28;20191;-54
2022/11/30 01:55:33;;;;;;;14.40;10.30;;;8.50;99.90;;;;;;5037021;28;20215;-55
2022/11/30 01:58:21;;;;;;;13.17;8.70;;;8.50;99.90;;;;;;5038498;28;20196;-56
2022/11/30 02:00:48;;;;;;;14.93;10.13;;;8.50;99.90;;;;;;5037751;28;20305;-55
2022/11/30 02:03:31;;;;;;;13.90;9.00;;;8.60;99.90;;;;;;5033144;28;20236;-56
2022/11/30 02:05:59;;;;;;;14.87;9.53;;;8.60;99.90;;;;;;5035943;28;20209;-55
2022/11/30 02:08:27;;;;;;;13.77;9.73;;;8.60;99.90;;;;;;5038420;28;20702;-55
2022/11/30 02:10:58;;;;;;;15.50;10.13;;;8.50;99.90;;;;;;5038967;28;20260;-56
2022/11/30 02:13:50;;;;;;;13.03;9.30;;;8.50;99.90;;;;;;5039540;28;20613;-55
2022/11/30 02:16:25;;;;;;;13.20;9.53;;;8.60;99.90;;;;;;5043378;28;20209;-57
2022/11/30 02:19:01;;;;;;;16.10;11.30;;;8.60;99.90;;;;;;5040641;28;20207;-55
2022/11/30 02:21:39;;;;;;;18.80;10.83;;;8.40;99.90;;;;;;5041299;28;20211;-55
2022/11/30 02:24:41;;;;;;;15.17;10.40;;;8.60;99.90;;;;;;5043042;28;20299;-55
2022/11/30 02:27:44;;;;;;;15.60;10.77;;;8.60;99.90;;;;;;4979509;28;20315;-59
2022/11/30 02:30:18;;;;;;;14.73;10.13;;;8.60;99.90;;;;;;4979968;28;20236;-56
2022/11/30 02:32:59;;;;;;;14.70;10.13;;;8.60;99.90;;;;;;4979004;28;20556;-55
2022/11/30 02:35:29;;;;;;;16.30;10.57;;;8.60;99.90;;;;;;4969218;28;20208;-56
2022/11/30 02:37:58;;;;;;;17.90;10.43;;;8.60;99.90;;;;;;4976077;28;20603;-55
2022/11/30 02:40:25;;;;;;;14.33;10.10;;;8.60;99.90;;;;;;4973133;28;20735;-55
2022/11/30 02:42:54;;;;;;;15.90;10.43;;;8.50;99.90;;;;;;4972188;28;20213;-56
2022/11/30 02:45:30;;;;;;;15.00;10.77;;;8.60;99.90;;;;;;4974179;28;20582;-55
2022/11/30 02:48:06;;;;;;;16.60;10.97;;;8.60;99.90;;;;;;4971981;28;20210;-56
2022/11/30 02:50:44;;;;;;;15.67;11.03;;;8.70;99.90;;;;;;4973012;28;20296;-56
2022/11/30 02:53:12;;;;;;;15.83;10.80;;;8.60;99.90;;;;;;4972265;28;20205;-56
2022/11/30 02:55:39;;;;;;;20.80;10.80;;;8.60;99.90;;;;;;4973947;28;20632;-56
2022/11/30 02:58:05;;;;;;;18.33;11.07;;;8.70;99.90;;;;;;4973810;28;20638;-55
2022/11/30 03:00:32;;;;;;;16.33;11.00;;;8.70;99.90;;;;;;4988897;28;20311;-56
2022/11/30 03:02:59;;;;;;;15.17;10.73;;;8.70;99.90;;;;;;5025543;28;20291;-60
2022/11/30 03:05:26;;;;;;;14.67;10.70;;;8.70;99.90;;;;;;5020037;28;20199;-55
2022/11/30 03:07:53;;;;;;;19.33;11.27;;;8.70;99.90;;;;;;5039324;28;20571;-55
2022/11/30 03:10:20;;;;;;;15.23;10.77;;;8.70;99.90;;;;;;5050384;28;20320;-56
2022/11/30 03:12:47;;;;;;;16.30;10.73;;;8.50;99.90;;;;;;5041233;28;20283;-55
2022/11/30 03:15:13;;;;;;;15.53;10.57;;;8.60;99.90;;;;;;5038222;28;20212;-56
2022/11/30 03:17:40;;;;;;;16.60;11.43;;;8.60;99.90;;;;;;5039877;28;20228;-56
2022/11/30 03:20:08;;;;;;;14.80;10.00;;;8.70;99.90;;;;;;5038963;28;20960;-54
2022/11/30 03:22:35;;;;;;;19.80;11.37;;;8.70;99.90;;;;;;5039009;28;20281;-55
2022/11/30 03:25:02;;;;;;;16.43;11.20;;;8.60;99.90;;;;;;5040740;28;20643;-54
2022/11/30 03:27:29;;;;;;;15.97;10.93;;;8.60;99.90;;;;;;5039086;28;20204;-55
2022/11/30 03:29:55;;;;;;;18.73;11.17;;;8.60;99.90;;;;;;5036755;28;20220;-56
2022/11/30 03:32:22;;;;;;;18.00;11.77;;;8.60;99.90;;;;;;5041476;28;20212;-56
2022/11/30 03:34:49;;;;;;;16.30;10.80;;;8.70;99.90;;;;;;5037975;28;20197;-55
2022/11/30 03:37:16;;;;;;;17.13;11.97;;;8.70;99.90;;;;;;5040425;28;20207;-54
2022/11/30 03:39:43;;;;;;;19.00;12.00;;;8.70;99.90;;;;;;5036745;28;20312;-55
2022/11/30 03:42:09;;;;;;;17.47;11.40;;;8.70;99.90;;;;;;5035089;28;20730;-56
2022/11/30 03:44:36;;;;;;;16.70;10.73;;;8.80;99.90;;;;;;5033515;28;20517;-56
2022/11/30 03:47:03;;;;;;;15.60;10.83;;;8.80;99.90;;;;;;5014380;28;20196;-55
2022/11/30 03:49:30;;;;;;;19.07;11.17;;;8.70;99.90;;;;;;5031682;28;20332;-55
2022/11/30 03:51:57;;;;;;;17.00;11.17;;;8.70;99.90;;;;;;5039891;28;20207;-56
2022/11/30 03:54:24;;;;;;;18.37;10.77;;;8.70;99.90;;;;;;5038436;28;20345;-55
2022/11/30 03:56:50;;;;;;;17.33;10.33;;;8.70;99.90;;;;;;5039514;28;20203;-55
2022/11/30 03:59:17;;;;;;;17.13;11.13;;;8.80;99.90;;;;;;5036454;28;20237;-57
2022/11/30 04:01:44;;;;;;;18.77;11.23;;;8.80;99.90;;;;;;5037306;28;20320;-56
2022/11/30 04:04:11;;;;;;;17.20;11.30;;;8.80;99.90;;;;;;5039223;28;20670;-55
2022/11/30 04:06:39;;;;;;;16.07;10.73;;;8.70;99.90;;;;;;5036587;28;20728;-57
2022/11/30 04:09:06;;;;;;;16.77;10.77;;;8.70;99.90;;;;;;5037362;28;20577;-57
2022/11/30 04:11:34;;;;;;;16.83;10.70;;;8.70;99.90;;;;;;5038381;28;20248;-58
2022/11/30 04:14:01;;;;;;;15.30;10.40;;;8.80;99.90;;;;;;5038845;28;20225;-56
2022/11/30 04:16:28;;;;;;;17.37;10.63;;;8.70;99.90;;;;;;5055582;28;20200;-56
2022/11/30 04:18:55;;;;;;;16.50;11.47;;;8.70;99.90;;;;;;5040203;28;20203;-57
2022/11/30 04:21:22;;;;;;;18.30;11.67;;;8.60;99.90;;;;;;5038645;28;20231;-56
2022/11/30 04:23:48;;;;;;;15.87;10.60;;;8.60;99.90;;;;;;5021568;28;20193;-56
2022/11/30 04:26:16;;;;;;;16.87;11.43;;;8.70;99.90;;;;;;5039723;28;20312;-56
2022/11/30 04:28:42;;;;;;;16.13;11.33;;;8.70;99.90;;;;;;5040258;28;20196;-56
2022/11/30 04:31:10;;;;;;;16.73;11.17;;;8.70;99.90;;;;;;5021902;28;21102;-56
2022/11/30 04:33:37;;;;;;;17.20;11.53;;;8.70;99.90;;;;;;5040405;28;20211;-56
2022/11/30 04:36:06;;;;;;;16.77;10.90;;;8.60;99.90;;;;;;5032232;28;20220;-55
2022/11/30 04:38:33;;;;;;;14.77;10.23;;;8.60;99.90;;;;;;5040163;28;20205;-56
2022/11/30 04:41:06;;;;;;;16.70;10.77;;;8.60;99.90;;;;;;5039220;28;20205;-56
2022/11/30 04:43:33;;;;;;;17.63;11.50;;;8.60;99.90;;;;;;5020180;28;20212;-56
2022/11/30 04:46:00;;;;;;;18.90;10.80;;;8.60;99.90;;;;;;5040005;28;20215;-56
2022/11/30 04:48:27;;;;;;;19.40;11.40;;;8.60;99.90;;;;;;5039732;28;20638;-56
2022/11/30 04:50:58;;;;;;;19.00;11.73;;;8.60;99.90;;;;;;5037162;28;20234;-55
2022/11/30 04:53:25;;;;;;;18.40;11.40;;;8.60;99.90;;;;;;5033369;28;20642;-58
2022/11/30 04:55:52;;;;;;;17.57;11.30;;;8.50;99.90;;;;;;5033396;28;20200;-56
2022/11/30 04:58:18;;;;;;;15.17;9.87;;;8.50;99.90;;;;;;5039518;28;20552;-55
2022/11/30 05:00:45;;;;;;;17.53;11.33;;;8.40;99.90;;;;;;5038438;28;20199;-56
2022/11/30 05:03:12;;;;;;;13.43;9.73;;;8.40;99.90;;;;;;5038110;28;20289;-55
2022/11/30 05:05:39;;;;;;;15.47;10.00;;;8.20;99.90;;;;;;5037411;28;20211;-56
2022/11/30 05:08:06;;;;;;;17.37;10.67;;;8.20;99.90;;;;;;5038681;28;20228;-55
2022/11/30 05:10:32;;;;;;;15.40;9.73;;;8.40;99.90;;;;;;5038462;28;20306;-55
2022/11/30 05:12:59;;;;;;;18.07;10.40;;;8.40;99.90;;;;;;5039070;28;20720;-55
2022/11/30 05:15:26;;;;;;;15.80;10.37;;;8.40;99.90;;;;;;5037763;28;20222;-55
2022/11/30 05:17:57;;;;;;;13.40;9.53;;;8.40;99.90;;;;;;5038604;28;20289;-62
2022/11/30 05:20:24;;;;;;;15.07;10.23;;;8.20;99.90;;;;;;5039283;28;20328;-56
2022/11/30 05:22:51;;;;;;;13.93;9.37;;;8.20;99.90;;;;;;5038769;28;20259;-56
2022/11/30 05:25:18;;;;;;;13.67;9.77;;;8.20;99.90;;;;;;5034382;28;20335;-57
2022/11/30 05:27:44;;;;;;;14.87;10.27;;;8.30;99.90;;;;;;5033235;28;20989;-55
2022/11/30 05:30:12;;;;;;;15.20;10.23;;;8.30;99.90;;;;;;5037323;28;20311;-55
2022/11/30 05:32:38;;;;;;;17.17;10.97;;;8.40;99.90;;;;;;5039876;28;20300;-55
2022/11/30 05:35:05;;;;;;;17.43;11.67;;;8.50;99.90;;;;;;5038057;28;20549;-56
2022/11/30 05:37:32;;;;;;;21.47;12.83;;;8.40;99.90;;;;;;5038019;28;20580;-55
2022/11/30 05:39:59;;;;;;;17.67;12.40;;;8.40;99.90;;;;;;5038100;28;20215;-58
2022/11/30 05:42:27;;;;;;;18.73;12.40;;;8.50;99.90;;;;;;5040120;28;20259;-56
2022/11/30 05:44:53;;;;;;;16.57;10.70;;;8.50;99.90;;;;;;5037012;28;20704;-55
2022/11/30 05:47:20;;;;;;;19.43;11.47;;;8.50;99.90;;;;;;5039541;28;20205;-57
2022/11/30 05:49:47;;;;;;;18.53;12.17;;;8.40;99.90;;;;;;5040883;28;20217;-56
2022/11/30 05:52:14;;;;;;;18.97;12.40;;;8.40;99.90;;;;;;5042830;28;20235;-56
2022/11/30 05:54:40;;;;;;;19.00;13.43;;;8.40;99.90;;;;;;5041226;28;20206;-55
2022/11/30 05:57:07;;;;;;;21.87;12.90;;;8.50;99.90;;;;;;5043547;28;20220;-56
2022/11/30 05:59:34;;;;;;;24.33;13.77;;;8.50;99.90;;;;;;5040655;28;20298;-56
2022/11/30 06:02:01;;;;;;;22.33;11.93;;;8.50;99.90;;;;;;5040530;28;20200;-55
2022/11/30 06:04:28;;;;;;;20.80;13.27;;;8.40;99.90;;;;;;5039294;28;20215;-57
2022/11/30 06:06:54;;;;;;;19.47;11.70;;;8.40;99.90;;;;;;5042571;28;20673;-57
2022/11/30 06:09:21;;;;;;;20.97;13.27;;;8.40;99.90;;;;;;5024718;28;20203;-56
2022/11/30 06:11:49;;;;;;;18.60;12.50;;;8.50;99.90;;;;;;5041988;28;20713;-56
2022/11/30 06:14:16;;;;;;;21.70;11.53;;;8.50;99.90;;;;;;5041024;28;20204;-57
2022/11/30 06:16:43;;;;;;;21.37;13.03;;;8.40;99.90;;;;;;5037151;28;20722;-55
2022/11/30 06:19:09;;;;;;;18.20;12.87;;;8.40;99.90;;;;;;5037097;28;21594;-55
2022/11/30 06:21:36;;;;;;;19.37;12.87;;;8.40;99.90;;;;;;5038480;28;20657;-55
2022/11/30 06:24:03;;;;;;;20.20;13.67;;;8.40;99.90;;;;;;5038811;28;20571;-56
2022/11/30 06:26:30;;;;;;;19.43;13.47;;;8.50;99.90;;;;;;5038169;28;20731;-55
2022/11/30 06:28:56;;;;;;;19.23;13.10;;;8.40;99.90;;;;;;5041759;28;20205;-56
2022/11/30 06:31:23;;;;;;;20.40;12.60;;;8.40;99.90;;;;;;5039456;28;20214;-55
2022/11/30 06:33:50;;;;;;;21.13;13.17;;;8.50;99.90;;;;;;5038241;28;20197;-55
2022/11/30 06:36:21;;;;;;;20.90;12.87;;;8.40;99.90;;;;;;5038276;28;20204;-56
2022/11/30 06:38:49;;;;;;;19.30;11.80;;;8.30;99.90;;;;;;5039086;28;20200;-55
2022/11/30 06:41:16;;;;;;;19.30;13.57;;;8.40;99.90;;;;;;5032591;28;20211;-55
2022/11/30 06:43:43;;;;;;;19.87;12.60;;;8.40;99.90;;;;;;5034129;28;20198;-55
2022/11/30 06:46:10;;;;;;;19.63;12.90;;;8.30;99.90;;;;;;5035164;28;20294;-55
2022/11/30 06:48:37;;;;;;;18.43;11.30;;;8.20;99.90;;;;;;5045345;28;20237;-55
2022/11/30 06:51:06;;;;;;;19.97;12.13;;;8.20;99.90;;;;;;5031696;28;20228;-58
2022/11/30 06:53:33;;;;;;;18.77;11.77;;;8.30;99.90;;;;;;5036587;28;20285;-55
2022/11/30 06:56:04;;;;;;;20.20;12.33;;;8.30;99.90;;;;;;5023869;28;21446;-56
2022/11/30 06:58:39;;;;;;;19.77;10.97;;;8.30;99.90;;;;;;5028244;28;20384;-57
2022/11/30 07:01:09;;;;;;;19.57;11.97;;;8.20;99.90;;;;;;5018068;28;21295;-56
2022/11/30 07:03:36;;;;;;;16.80;11.70;;;8.30;99.90;;;;;;5028608;28;20546;-56
2022/11/30 07:06:11;;;;;;;20.93;12.13;;;8.30;99.90;;;;;;5040088;28;20208;-56
2022/11/30 07:08:39;;;;;;;19.83;12.40;;;8.30;99.90;;;;;;5026214;28;20227;-56
2022/11/30 07:11:07;;;;;;;21.93;12.57;;;8.30;99.90;;;;;;5031463;28;20225;-55
2022/11/30 07:13:34;;;;;;;20.23;12.10;;;8.30;99.90;;;;;;5026570;28;20230;-55
2022/11/30 07:16:07;;;;;;;18.87;11.67;;;8.40;99.90;;;;;;5005966;28;20209;-56
2022/11/30 07:18:34;;;;;;;19.37;12.53;;;8.40;99.90;;;;;;4665337;28;10000495;-56
2022/11/30 07:21:03;;;;;;;18.67;12.27;;;8.30;99.90;;;;;;5023225;28;20291;-56
2022/11/30 07:26:23;;;;;;;22.30;13.17;;;8.40;99.90;;;;;;5014746;28;20205;-55
2022/11/30 07:28:53;;;;;;;23.27;14.03;;;8.40;99.90;;;;;;5025238;28;20225;-56
2022/11/30 07:31:22;;;;;;;22.30;13.77;;;8.40;99.90;;;;;;5027902;28;20279;-56
2022/11/30 07:33:50;;;;;;;24.10;13.77;;;8.50;99.90;;;;;;5022778;28;20204;-56
2022/11/30 07:36:19;;;;;;;21.17;14.40;;;8.50;99.90;;;;;;5027154;28;20661;-56
2022/11/30 07:38:46;;;;;;;20.57;14.10;;;8.50;99.90;;;;;;5030358;28;20710;-56
2022/11/30 07:41:13;;;;;;;22.73;14.40;;;8.50;99.90;;;;;;5029785;28;20288;-55
2022/11/30 07:43:40;;;;;;;22.07;13.57;;;8.50;99.90;;;;;;5023536;28;20213;-55
2022/11/30 07:46:10;;;;;;;21.23;12.87;;;8.50;99.90;;;;;;5027015;28;20284;-55
2022/11/30 07:48:37;;;;;;;19.00;11.43;;;8.50;99.90;;;;;;5019871;28;20215;-55
2022/11/30 07:51:12;;;;;;;20.30;13.33;;;8.50;99.90;;;;;;5028948;28;20220;-56
2022/11/30 07:53:39;;;;;;;21.27;12.90;;;8.50;99.90;;;;;;5010726;28;20672;-55
2022/11/30 07:56:12;;;;;;;23.47;13.50;;;8.40;99.90;;;;;;5031678;28;20294;-56
2022/11/30 07:58:40;;;;;;;22.13;13.87;;;8.50;99.90;;;;;;5029505;28;20224;-57
2022/11/30 08:01:09;;;;;;;18.13;12.33;;;8.50;99.90;;;;;;5024188;28;20283;-55
2022/11/30 08:03:37;;;;;;;19.80;13.00;;;8.50;99.90;;;;;;5027786;28;20223;-57
2022/11/30 08:06:10;;;;;;;19.10;11.53;;;8.60;99.90;;;;;;5030793;28;20266;-54
2022/11/30 08:08:40;;;;;;;20.77;12.70;;;8.50;99.90;;;;;;5028440;28;20619;-54
2022/11/30 08:11:09;;;;;;;19.77;11.90;;;8.50;99.90;;;;;;5026090;28;20244;-56
2022/11/30 08:13:36;;;;;;;19.03;12.40;;;8.60;99.90;;;;;;5030541;28;20207;-55
2022/11/30 08:16:05;;;;;;;22.37;13.23;;;8.60;99.90;;;;;;5028383;28;20261;-55
2022/11/30 08:18:32;;;;;;;18.53;12.17;;;8.50;99.90;;;;;;5019191;28;20221;-55
2022/11/30 08:21:01;;;;;;;22.07;12.67;;;8.50;99.90;;;;;;5034572;28;20290;-55
2022/11/30 08:23:29;;;;;;;22.53;13.70;;;8.50;99.90;;;;;;5036186;28;20213;-55
2022/11/30 08:25:55;;;;;;;21.97;13.60;;;8.40;99.90;;;;;;5033347;28;20295;-57
2022/11/30 08:28:22;;;;;;;19.97;12.80;;;8.60;99.90;;;;;;5027091;28;20222;-55
2022/11/30 08:30:49;;;;;;;18.67;12.37;;;8.70;99.90;;;;;;5027979;28;20205;-56
2022/11/30 08:33:16;;;;;;;21.10;13.07;;;8.70;99.90;;;;;;5028146;28;20202;-55
2022/11/30 08:35:43;;;;;;;24.67;14.30;;;8.80;99.90;;;;;;5032423;28;20199;-55
2022/11/30 08:38:09;;;;;;;22.00;13.83;;;8.90;99.90;;;;;;5029925;28;20310;-55
2022/11/30 08:40:36;;;;;;;20.80;13.70;;;8.90;99.90;;;;;;5035387;28;20200;-55
2022/11/30 08:43:03;;;;;;;23.67;13.83;;;9.00;99.90;;;;;;5035313;28;20674;-56
2022/11/30 08:45:30;;;;;;;24.17;14.87;;;9.10;99.90;;;;;;5030012;28;20208;-55
2022/11/30 08:47:56;;;;;;;21.20;14.43;;;9.00;99.90;;;;;;5032535;28;20202;-55
2022/11/30 08:50:23;;;;;;;20.47;13.93;;;9.00;99.90;;;;;;5034759;28;20214;-56
2022/11/30 08:52:53;;;;;;;22.23;14.43;;;9.00;99.90;;;;;;5037741;28;20648;-56
2022/11/30 08:55:20;;;;;;;19.97;13.73;;;9.20;99.90;;;;;;5029144;28;20273;-55
2022/11/30 08:57:47;;;;;;;22.53;14.03;;;9.00;99.90;;;;;;5033917;28;20208;-56
2022/11/30 09:00:14;;;;;;;20.77;13.43;;;9.10;99.90;;;;;;5033341;28;20208;-56
2022/11/30 09:02:41;;;;;;;21.50;13.23;;;9.00;99.90;;;;;;5015930;28;20244;-55
2022/11/30 09:05:08;;;;;;;21.47;14.27;;;9.10;99.90;;;;;;5025683;28;20293;-55
2022/11/30 09:07:35;;;;;;;19.63;13.23;;;9.00;99.90;;;;;;5033685;28;20196;-56
2022/11/30 09:10:02;;;;;;;23.83;15.17;;;9.10;99.90;;;;;;5031399;28;20253;-56
2022/11/30 09:12:29;;;;;;;24.03;14.50;;;9.20;99.90;;;;;;5031188;28;20237;-56
2022/11/30 09:14:56;;;;;;;21.93;14.03;;;9.20;99.90;;;;;;5021444;28;20226;-55
2022/11/30 09:17:24;;;;;;;30.63;14.37;;;9.20;99.90;;;;;;5026403;28;20248;-55
2022/11/30 09:19:51;;;;;;;22.43;14.30;;;9.00;99.90;;;;;;5024175;28;20234;-55
2022/11/30 09:22:18;;;;;;;22.87;14.83;;;8.90;99.90;;;;;;5023302;28;20836;-59
2022/11/30 09:24:45;;;;;;;23.57;14.23;;;9.00;99.90;;;;;;5027266;28;20653;-56
2022/11/30 09:27:12;;;;;;;23.37;14.37;;;9.00;99.90;;;;;;5038742;28;20747;-55
2022/11/30 09:29:39;;;;;;;23.07;14.23;;;9.10;99.90;;;;;;5022788;28;20215;-59
2022/11/30 09:32:06;;;;;;;24.13;13.87;;;9.10;99.90;;;;;;5022558;28;20361;-58
2022/11/30 09:34:32;;;;;;;20.30;13.47;;;9.20;99.90;;;;;;5020531;28;20757;-60
2022/11/30 09:36:59;;;;;;;21.67;14.60;;;9.10;99.90;;;;;;5020803;28;20564;-55
2022/11/30 09:39:26;;;;;;;22.63;13.87;;;9.30;99.90;;;;;;5019451;28;20205;-55
2022/11/30 09:42:11;;;;;;;22.00;13.70;;;9.30;99.90;;;;;;5032907;28;20290;-57
2022/11/30 09:45:28;;;;;;;24.10;13.87;;;9.30;99.90;;;;;;5029146;28;20227;-55
2022/11/30 09:48:04;;;;;;;20.23;12.97;;;9.40;99.90;;;;;;5017344;28;20712;-56
2022/11/30 09:50:36;;;;;;;22.77;13.50;;;9.70;99.90;;;;;;5030588;28;20737;-56
2022/11/30 09:53:07;;;;;;;23.33;14.57;;;10.00;99.90;;;;;;5029511;28;20209;-59
2022/11/30 09:55:41;;;;;;;23.67;13.67;;;10.10;99.90;;;;;;5028432;28;20207;-55
2022/11/30 09:58:31;;;;;;;23.47;15.10;;;10.40;99.90;;;;;;5029866;28;21881;-56
2022/11/30 10:00:58;;;;;;;22.60;14.20;;;10.50;99.90;;;;;;5032274;28;20216;-54
2022/11/30 10:03:32;;;;;;;20.73;12.83;;;10.50;99.90;;;;;;5034538;28;20199;-55
2022/11/30 10:06:29;;;;;;;20.27;13.80;;;10.50;99.90;;;;;;5030464;28;20198;-56
2022/11/30 10:09:26;;;;;;;23.10;14.00;;;10.60;99.90;;;;;;5033449;28;20214;-56
2022/11/30 10:12:08;;;;;;;23.43;14.40;;;10.50;99.90;;;;;;5023679;28;20333;-56
2022/11/30 10:14:37;;;;;;;21.17;13.40;;;10.30;99.90;;;;;;5017522;28;21236;-58
2022/11/30 10:17:16;;;;;;;20.73;13.50;;;10.20;99.90;;;;;;5016747;28;20214;-56
2022/11/30 10:19:52;;;;;;;19.57;13.63;;;10.20;99.90;;;;;;5015259;28;20234;-55
2022/11/30 10:22:48;;;;;;;22.43;14.07;;;10.30;99.90;;;;;;5019268;28;20210;-55
2022/11/30 10:25:35;;;;;;;21.33;12.87;;;10.10;99.90;;;;;;5018187;28;20268;-55
2022/11/30 10:28:42;;;;;;;21.60;13.83;;;10.10;99.90;;;;;;5022443;28;20298;-56
2022/11/30 10:31:15;;;;;;;23.83;13.67;;;10.10;99.90;;;;;;5002703;28;20267;-55
2022/11/30 10:33:50;;;;;;;22.37;13.27;;;10.30;99.90;;;;;;5014843;28;20257;-56
2022/11/30 10:36:38;;;;;;;20.27;13.33;;;10.30;99.90;;;;;;5019918;28;20211;-56
2022/11/30 10:39:16;;;;;;;21.10;12.83;;;10.30;99.90;;;;;;5025951;28;20282;-56
2022/11/30 10:41:55;;;;;;;18.33;12.57;;;10.40;99.90;;;;;;5027872;28;20343;-56
2022/11/30 10:44:38;;;;;;;20.17;12.93;;;10.20;99.90;;;;;;5024204;28;20588;-55
2022/11/30 10:47:27;;;;;;;19.77;12.97;;;10.30;99.90;;;;;;5026394;28;20227;-56
2022/11/30 10:49:54;;;;;;;19.10;11.63;;;10.20;99.90;;;;;;5036156;28;20283;-57
2022/11/30 10:52:27;;;;;;;23.90;12.80;;;10.30;99.90;;;;;;5042414;28;20686;-56
2022/11/30 10:54:55;;;;;;;24.20;13.77;;;10.10;99.90;;;;;;5041085;28;20248;-56
2022/11/30 10:57:31;;;;;;;20.77;13.07;;;10.20;99.90;;;;;;5031015;28;20258;-56
2022/11/30 10:59:59;;;;;;;18.37;12.37;;;10.20;99.90;;;;;;5032572;28;20199;-55
2022/11/30 11:02:44;;;;;;;19.30;12.03;;;10.10;99.90;;;;;;5035795;28;20273;-56
2022/11/30 11:05:17;;;;;;;17.67;11.93;;;10.10;99.90;;;;;;5036639;28;20207;-56
2022/11/30 11:07:59;;;;;;;18.57;12.27;;;10.00;99.90;;;;;;5031603;28;20202;-56
2022/11/30 11:10:38;;;;;;;18.53;12.00;;;10.00;99.90;;;;;;5024073;28;20248;-56
2022/11/30 11:13:05;;;;;;;18.87;11.87;;;9.90;99.90;;;;;;5028178;28;20211;-58
2022/11/30 11:15:33;;;;;;;17.27;12.30;;;9.90;99.90;;;;;;5027842;28;20244;-57
2022/11/30 11:18:31;;;;;;;18.73;12.13;;;9.80;99.90;;;;;;5020444;28;20205;-56
2022/11/30 11:21:01;;;;;;;19.20;12.73;;;9.90;99.90;;;;;;5028304;28;20235;-56
2022/11/30 11:23:34;;;;;;;22.43;13.53;;;9.90;99.90;;;;;;5042094;28;20223;-55
2022/11/30 11:26:01;;;;;;;16.13;11.67;;;9.90;99.90;;;;;;5043422;28;20698;-55
2022/11/30 11:28:28;;;;;;;20.90;12.60;;;9.90;99.90;;;;;;5047384;28;20218;-56
2022/11/30 11:30:56;;;;;;;18.63;12.43;;;9.70;99.90;;;;;;5038278;28;20262;-56
2022/11/30 11:33:25;;;;;;;18.30;12.13;;;9.80;99.90;;;;;;5042998;28;20228;-56
2022/11/30 11:36:05;;;;;;;21.17;12.80;;;9.70;99.90;;;;;;5040903;28;20196;-56
2022/11/30 11:38:43;;;;;;;18.87;12.63;;;9.70;99.90;;;;;;5046149;28;20220;-56
2022/11/30 11:41:24;;;;;;;20.53;13.63;;;9.70;99.90;;;;;;5047260;28;20207;-56
2022/11/30 11:44:09;;;;;;;21.43;12.93;;;9.50;99.90;;;;;;5051043;28;20236;-56
2022/11/30 11:46:51;;;;;;;20.40;13.30;;;9.50;99.90;;;;;;5050860;28;20300;-56
2022/11/30 11:49:22;;;;;;;19.27;11.67;;;9.50;99.90;;;;;;5049787;28;20719;-56
2022/11/30 11:52:19;;;;;;;20.80;12.97;;;9.40;99.90;;;;;;5031499;28;20227;-56
2022/11/30 11:54:55;;;;;;;17.70;13.17;;;9.40;99.90;;;;;;5050879;28;20226;-56
2022/11/30 11:57:43;;;;;;;20.30;12.77;;;9.70;99.90;;;;;;5052376;28;20197;-57
2022/11/30 12:00:15;;;;;;;20.67;13.70;;;9.80;99.90;;;;;;5051888;28;20217;-56
2022/11/30 12:03:06;;;;;;;18.63;12.23;;;9.90;99.90;;;;;;5035669;28;20313;-56
2022/11/30 12:05:41;;;;;;;21.20;13.07;;;9.90;99.90;;;;;;5049557;28;20212;-56
2022/11/30 12:08:49;;;;;;;17.43;12.77;;;9.90;99.90;;;;;;5048410;28;20305;-56
2022/11/30 12:11:46;;;;;;;17.83;12.20;;;9.80;99.90;;;;;;5048153;28;20326;-58
2022/11/30 12:14:15;;;;;;;20.37;13.30;;;9.90;99.90;;;;;;5052244;28;20202;-56
2022/11/30 12:17:01;;;;;;;18.80;12.67;;;10.20;99.90;;;;;;5048492;28;20195;-56
2022/11/30 12:19:33;;;;;;;16.83;12.00;;;10.10;99.90;;;;;;5044592;28;20588;-56
2022/11/30 12:22:25;;;;;;;17.80;12.37;;;10.20;99.90;;;;;;5041932;28;20227;-56
2022/11/30 12:25:15;;;;;;;17.23;12.30;;;10.10;99.90;;;;;;5034022;28;20627;-57
2022/11/30 12:28:00;;;;;;;21.63;13.60;;;9.80;99.90;;;;;;5027428;28;20824;-56
2022/11/30 12:30:45;;;;;;;18.07;11.73;;;9.60;99.90;;;;;;5030548;28;20201;-56
2022/11/30 12:33:36;;;;;;;23.30;12.83;;;9.70;99.90;;;;;;5032374;28;20224;-56
2022/11/30 12:36:17;;;;;;;17.77;12.87;;;9.70;99.90;;;;;;5032485;28;20311;-56
2022/11/30 12:39:07;;;;;;;18.97;12.70;;;9.70;99.90;;;;;;5030274;28;20205;-56
2022/11/30 12:41:40;;;;;;;17.43;12.07;;;9.70;99.90;;;;;;5026444;28;20549;-56
2022/11/30 12:44:13;;;;;;;21.17;13.97;;;9.60;99.90;;;;;;5026842;28;20297;-57
2022/11/30 12:46:48;;;;;;;17.10;12.20;;;9.60;99.90;;;;;;5026088;28;20212;-56
2022/11/30 12:49:21;;;;;;;21.37;13.50;;;9.60;99.90;;;;;;5028696;28;20240;-56
2022/11/30 12:51:56;;;;;;;19.67;13.57;;;9.60;99.90;;;;;;5036505;28;20214;-56
2022/11/30 12:54:55;;;;;;;22.43;12.90;;;9.60;99.90;;;;;;5032614;28;20318;-56
2022/11/30 12:57:33;;;;;;;19.57;13.53;;;9.40;99.90;;;;;;5026967;28;20677;-55
2022/11/30 13:00:20;;;;;;;20.70;13.67;;;9.50;99.90;;;;;;5026745;28;20241;-55